Time;durP1;ratioP1;P1;durP2;ratioP2;P2;SDS_P1;SDS_P2;PMS_P1;PMS_P2;Temp;Humidity;BMP_temperature;BMP_pressure;BME280_temperature;BME280_humidity;BME280_pressure;Samples;Min_cycle;Max_cycle;Signal;HPM_P1;HPM_P2
2022/02/08 00:01:48;;;;;;;14.07;3.92;;;8.20;82.00;;;;;;6154033;22;93397;-70
2022/02/08 00:04:15;;;;;;;8.15;3.42;;;8.20;82.10;;;;;;6156048;22;92694;-70
2022/02/08 00:06:45;;;;;;;16.88;4.40;;;8.20;82.40;;;;;;6154198;22;92463;-70
2022/02/08 00:09:14;;;;;;;13.05;4.07;;;8.20;82.40;;;;;;6156630;22;92041;-70
2022/02/08 00:11:41;;;;;;;12.90;4.18;;;8.20;83.30;;;;;;6129491;22;93119;-70
2022/02/08 00:14:08;;;;;;;16.35;4.30;;;8.20;83.90;;;;;;6154343;22;93028;-70
2022/02/08 00:16:35;;;;;;;18.45;4.65;;;8.10;84.90;;;;;;6154419;22;94762;-70
2022/02/08 00:19:03;;;;;;;17.08;4.25;;;8.10;85.20;;;;;;6154708;22;92490;-70
2022/02/08 00:21:30;;;;;;;11.98;4.45;;;8.10;85.60;;;;;;6129313;22;93154;-70
2022/02/08 00:23:57;;;;;;;15.02;4.90;;;8.10;85.70;;;;;;6155995;22;93019;-70
2022/02/08 00:26:25;;;;;;;15.23;5.25;;;8.10;85.80;;;;;;6156042;22;92401;-70
2022/02/08 00:28:52;;;;;;;20.05;6.10;;;8.10;86.00;;;;;;6155691;22;92437;-71
2022/02/08 00:31:19;;;;;;;17.33;5.85;;;8.10;86.40;;;;;;6155814;22;93171;-70
2022/02/08 00:33:46;;;;;;;17.38;5.65;;;8.00;86.70;;;;;;6154116;22;95500;-70
2022/02/08 00:36:13;;;;;;;22.20;6.05;;;8.00;86.70;;;;;;6154444;22;92394;-70
2022/02/08 00:38:40;;;;;;;17.30;6.40;;;8.00;86.80;;;;;;6154063;22;92482;-70
2022/02/08 00:41:07;;;;;;;16.83;6.25;;;8.10;86.80;;;;;;6152418;22;95832;-70
2022/02/08 00:43:48;;;;;;;23.80;6.35;;;8.10;86.70;;;;;;6153903;22;95409;-70
2022/02/08 00:49:02;;;;;;;18.05;6.63;;;8.10;87.40;;;;;;6153665;22;92497;-70
2022/02/08 00:51:39;;;;;;;23.38;7.05;;;8.00;87.60;;;;;;6154320;22;93239;-70
2022/02/08 00:54:08;;;;;;;16.60;6.53;;;8.00;87.80;;;;;;6154171;22;95225;-70
2022/02/08 00:56:37;;;;;;;17.45;5.97;;;8.10;87.90;;;;;;6153859;22;92545;-70
2022/02/08 00:59:05;;;;;;;21.15;6.97;;;8.10;88.00;;;;;;6154554;22;91661;-70
2022/02/08 01:01:36;;;;;;;18.58;6.97;;;8.00;88.30;;;;;;6153626;22;95607;-71
2022/02/08 01:04:08;;;;;;;22.20;6.38;;;8.10;88.10;;;;;;6155677;22;92875;-70
2022/02/08 01:06:36;;;;;;;23.77;6.05;;;8.10;88.00;;;;;;6154669;22;95237;-70
2022/02/08 01:09:09;;;;;;;21.20;6.47;;;8.00;88.50;;;;;;6155748;22;92427;-70
2022/02/08 01:11:37;;;;;;;23.30;7.93;;;8.10;88.90;;;;;;6154173;22;95769;-70
2022/02/08 01:14:05;;;;;;;19.48;6.80;;;8.10;88.90;;;;;;6155562;22;92999;-70
2022/02/08 01:16:32;;;;;;;24.33;7.22;;;8.10;89.10;;;;;;6129090;22;92345;-70
2022/02/08 01:19:00;;;;;;;24.50;7.95;;;8.20;89.00;;;;;;6154064;22;92442;-70
2022/02/08 01:21:30;;;;;;;19.48;6.90;;;8.20;88.90;;;;;;6154078;22;93496;-70
2022/02/08 01:23:58;;;;;;;27.83;7.28;;;8.20;89.20;;;;;;6155704;22;92835;-70
2022/02/08 01:26:26;;;;;;;27.10;7.20;;;8.20;89.70;;;;;;6153929;22;92477;-70
2022/02/08 01:29:19;;;;;;;20.92;8.02;;;8.20;89.70;;;;;;6129182;22;92532;-70
2022/02/08 01:31:48;;;;;;;22.80;7.80;;;8.20;89.80;;;;;;6127269;22;98095;-70
2022/02/08 01:34:31;;;;;;;21.85;7.10;;;8.20;90.10;;;;;;6153497;22;97109;-70
2022/02/08 01:37:22;;;;;;;26.60;8.13;;;8.30;90.10;;;;;;6153770;22;92419;-70
2022/02/08 01:42:41;;;;;;;32.92;7.72;;;8.20;90.20;;;;;;6153728;22;96228;-70
2022/02/08 01:47:59;;;;;;;26.48;7.82;;;8.20;90.40;;;;;;6153397;22;92557;-70
2022/02/08 01:50:28;;;;;;;29.23;8.73;;;8.20;90.50;;;;;;6129164;22;91584;-70
2022/02/08 01:52:56;;;;;;;27.15;8.45;;;8.30;90.60;;;;;;6154434;22;93153;-70
2022/02/08 01:55:28;;;;;;;18.00;8.45;;;8.30;90.50;;;;;;6105091;22;95237;-70
2022/02/08 01:58:15;;;;;;;18.92;8.98;;;8.30;90.60;;;;;;6127513;22;94783;-70
2022/02/08 02:00:42;;;;;;;23.52;8.52;;;8.30;90.60;;;;;;6128661;22;92498;-71
2022/02/08 02:03:10;;;;;;;21.58;8.80;;;8.30;90.60;;;;;;6103639;22;95574;-70
2022/02/08 02:05:37;;;;;;;19.17;9.77;;;8.40;90.70;;;;;;6128376;22;95386;-70
2022/02/08 02:08:06;;;;;;;26.75;10.02;;;8.40;90.80;;;;;;6104136;22;92480;-70
2022/02/08 02:10:37;;;;;;;24.80;10.07;;;8.40;90.80;;;;;;6127654;22;92510;-70
2022/02/08 02:13:12;;;;;;;19.40;9.60;;;8.40;90.90;;;;;;6127288;22;94858;-70
2022/02/08 02:15:41;;;;;;;24.45;9.98;;;8.40;90.90;;;;;;6128722;22;93816;-70
2022/02/08 02:18:09;;;;;;;17.85;9.05;;;8.50;91.00;;;;;;6102942;22;92482;-70
2022/02/08 02:20:36;;;;;;;26.90;9.82;;;8.50;91.00;;;;;;6128507;22;92446;-70
2022/02/08 02:23:03;;;;;;;19.20;9.82;;;8.50;91.00;;;;;;6126495;22;97847;-70
2022/02/08 02:25:32;;;;;;;21.20;9.77;;;8.50;91.00;;;;;;6128244;22;97410;-70
2022/02/08 02:28:02;;;;;;;20.25;9.02;;;8.50;91.10;;;;;;6103412;22;92387;-70
2022/02/08 02:30:34;;;;;;;15.43;8.68;;;8.60;91.10;;;;;;6128612;22;92418;-70
2022/02/08 02:33:05;;;;;;;16.63;8.77;;;8.60;91.20;;;;;;6104169;22;95477;-70
2022/02/08 02:35:32;;;;;;;16.67;9.70;;;8.60;91.30;;;;;;6128296;22;95365;-71
2022/02/08 02:38:06;;;;;;;14.88;9.18;;;8.70;91.20;;;;;;6103986;22;92455;-70
2022/02/08 02:40:40;;;;;;;17.42;9.63;;;8.70;91.30;;;;;;6129188;22;91601;-70
2022/02/08 02:43:09;;;;;;;19.48;9.70;;;8.70;91.30;;;;;;6127907;22;95116;-71
2022/02/08 02:45:37;;;;;;;14.95;8.75;;;8.70;91.30;;;;;;6103927;22;95361;-70
2022/02/08 02:48:05;;;;;;;15.65;9.90;;;8.80;91.40;;;;;;6102700;22;94923;-70
2022/02/08 02:50:42;;;;;;;20.35;10.43;;;8.80;91.40;;;;;;6130523;22;92563;-70
2022/02/08 02:53:09;;;;;;;15.88;10.57;;;8.80;91.40;;;;;;6153975;22;93116;-70
2022/02/08 02:55:36;;;;;;;23.20;11.82;;;8.90;91.30;;;;;;6152503;22;92981;-70
2022/02/08 02:58:06;;;;;;;23.98;11.55;;;8.90;91.40;;;;;;6152599;22;92800;-70
2022/02/08 03:00:38;;;;;;;22.85;12.75;;;8.90;91.60;;;;;;6152625;22;92548;-70
2022/02/08 03:19:27;;;;;;;25.40;12.32;;;9.10;91.60;;;;;;6155680;22;92438;-70
2022/02/08 03:21:55;;;;;;;26.23;13.68;;;9.20;91.60;;;;;;6153707;22;92479;-70
2022/02/08 03:24:22;;;;;;;27.52;13.93;;;9.20;91.60;;;;;;6129088;22;95615;-70
2022/02/08 03:26:52;;;;;;;27.50;13.38;;;9.30;91.60;;;;;;6153368;22;93833;-70
2022/02/08 03:29:19;;;;;;;37.17;13.98;;;9.30;91.60;;;;;;6153858;22;92901;-70
2022/02/08 03:31:46;;;;;;;27.83;14.00;;;9.30;91.60;;;;;;6129273;22;91635;-70
2022/02/08 03:34:14;;;;;;;26.83;12.70;;;9.40;91.50;;;;;;6153156;22;95585;-70
2022/02/08 03:36:44;;;;;;;34.03;14.23;;;9.40;91.50;;;;;;6153365;22;95316;-70
2022/02/08 03:41:47;;;;;;;30.60;13.65;;;9.40;91.50;;;;;;6153543;22;92461;-70
2022/02/08 03:44:20;;;;;;;24.80;12.55;;;9.50;91.50;;;;;;6153395;22;95618;-70
2022/02/08 03:46:52;;;;;;;33.55;12.85;;;9.50;91.50;;;;;;6129685;22;94862;-70
2022/02/08 03:49:21;;;;;;;32.00;13.13;;;9.50;91.50;;;;;;6152904;22;92422;-70
2022/02/08 03:51:54;;;;;;;26.33;11.93;;;9.50;91.60;;;;;;6153644;22;92401;-71
2022/02/08 03:54:22;;;;;;;34.85;13.48;;;9.60;91.60;;;;;;6153597;22;95291;-71
2022/02/08 03:56:50;;;;;;;31.48;12.95;;;9.60;91.50;;;;;;6153813;22;95675;-71
2022/02/08 03:59:18;;;;;;;27.45;13.02;;;9.60;91.40;;;;;;6128379;22;92472;-70
2022/02/08 04:06:56;;;;;;;24.83;12.57;;;9.70;91.50;;;;;;6154980;22;101063;-70
2022/02/08 04:09:23;;;;;;;26.73;12.65;;;9.70;91.50;;;;;;6155104;22;92309;-70
2022/02/08 04:12:07;;;;;;;26.85;11.93;;;9.70;91.40;;;;;;6154285;22;110833;-71
2022/02/08 04:14:48;;;;;;;33.38;13.10;;;9.80;91.40;;;;;;6154915;22;93159;-70
2022/02/08 04:17:39;;;;;;;23.63;10.60;;;9.80;91.30;;;;;;6153153;22;100430;-70
2022/02/08 04:31:24;;;;;;;24.38;11.77;;;9.80;91.30;;;;;;6155056;22;92411;-71
2022/02/08 04:31:51;;;;;;;24.80;11.48;;;9.90;91.30;;;;;;6153454;22;94824;-70
2022/02/08 04:34:41;;;;;;;24.75;11.02;;;9.90;91.30;;;;;;6153320;22;93956;-71
2022/02/08 04:42:10;;;;;;;19.65;9.55;;;9.90;91.20;;;;;;6153921;22;93354;-70
2022/02/08 04:44:49;;;;;;;22.60;10.82;;;10.00;91.20;;;;;;6155733;22;94290;-70
2022/02/08 04:47:28;;;;;;;26.42;9.52;;;10.00;91.20;;;;;;6154834;22;92868;-70
2022/02/08 04:49:56;;;;;;;19.83;10.60;;;10.00;91.20;;;;;;6154107;22;98941;-70
2022/02/08 04:52:25;;;;;;;17.70;10.10;;;10.00;91.20;;;;;;6154617;22;93913;-71
2022/02/08 04:55:45;;;;;;;25.20;9.07;;;10.00;91.10;;;;;;6155129;22;92395;-70
2022/02/08 05:35:52;;;;;;;19.40;8.65;;;10.20;90.80;;;;;;6155643;22;93714;-71
2022/02/08 05:43:48;;;;;;;16.98;7.28;;;10.20;90.70;;;;;;6154591;22;92627;-71
2022/02/08 05:49:03;;;;;;;19.27;7.68;;;10.20;90.70;;;;;;6155423;22;92393;-70
2022/02/08 05:51:56;;;;;;;15.45;7.82;;;10.20;90.70;;;;;;6153462;22;99305;-71
2022/02/08 05:54:20;;;;;;;17.15;7.60;;;10.20;90.70;;;;;;6154922;22;95088;-71
2022/02/08 05:56:52;;;;;;;17.67;6.97;;;10.20;90.70;;;;;;6155463;22;92418;-71
2022/02/08 05:59:22;;;;;;;24.70;6.70;;;10.20;90.60;;;;;;6128751;22;92792;-70
2022/02/08 06:01:49;;;;;;;12.82;5.78;;;10.20;90.60;;;;;;6155231;22;93461;-71
2022/02/08 06:04:33;;;;;;;15.10;5.88;;;10.30;90.50;;;;;;6128243;22;95462;-71
2022/02/08 06:07:00;;;;;;;19.17;6.53;;;10.30;90.50;;;;;;6155428;22;92419;-70
2022/02/08 06:09:27;;;;;;;14.13;5.63;;;10.30;90.50;;;;;;6129203;22;91667;-71
2022/02/08 06:11:54;;;;;;;15.32;6.55;;;10.30;90.40;;;;;;6155279;22;93760;-70
2022/02/08 06:14:25;;;;;;;19.25;6.78;;;10.30;90.40;;;;;;6128502;22;92917;-71
2022/02/08 06:16:53;;;;;;;19.02;7.30;;;10.30;90.30;;;;;;6103116;22;94742;-70
2022/02/08 06:19:20;;;;;;;18.55;6.32;;;10.30;90.30;;;;;;6104467;22;92389;-71
2022/02/08 06:21:48;;;;;;;17.40;6.43;;;10.30;90.20;;;;;;6155167;22;93685;-71
2022/02/08 06:24:15;;;;;;;14.35;5.53;;;10.40;90.20;;;;;;6128558;22;92419;-71
2022/02/08 06:26:42;;;;;;;15.05;5.80;;;10.40;90.10;;;;;;6128803;22;92334;-70
2022/02/08 06:29:15;;;;;;;19.15;6.15;;;10.40;90.10;;;;;;6104022;22;92373;-71
2022/02/08 06:31:44;;;;;;;12.67;4.67;;;10.40;90.10;;;;;;6154832;22;92575;-71
2022/02/08 06:34:17;;;;;;;18.42;5.70;;;10.30;90.00;;;;;;6155604;22;92876;-71
2022/02/08 06:36:44;;;;;;;15.98;5.18;;;10.40;90.10;;;;;;6155003;22;92287;-71
2022/02/08 06:39:11;;;;;;;13.57;4.63;;;10.40;90.00;;;;;;6152489;22;102057;-71
2022/02/08 06:41:38;;;;;;;12.68;4.93;;;10.40;90.00;;;;;;6153307;22;95639;-70
2022/02/08 06:44:05;;;;;;;11.70;4.45;;;10.40;90.00;;;;;;6155039;22;95340;-71
2022/02/08 06:46:33;;;;;;;12.25;4.60;;;10.40;89.60;;;;;;6128796;22;92421;-70
2022/02/08 06:48:59;;;;;;;15.57;4.53;;;10.40;89.60;;;;;;6093071;23;92479;-70
2022/02/08 06:51:26;;;;;;;14.73;3.58;;;10.50;89.80;;;;;;6098690;23;93268;-71
2022/02/08 06:53:53;;;;;;;13.73;3.50;;;10.50;89.60;;;;;;6098671;23;93231;-71
2022/02/08 06:56:20;;;;;;;12.73;4.50;;;10.40;89.30;;;;;;6074222;23;92485;-71
2022/02/08 06:58:52;;;;;;;14.35;4.10;;;10.50;89.40;;;;;;6098472;23;91819;-71
2022/02/08 07:01:25;;;;;;;18.83;4.63;;;10.50;89.20;;;;;;6074067;23;95784;-71
2022/02/08 07:03:53;;;;;;;13.27;3.25;;;10.50;89.10;;;;;;6075318;23;95452;-71
2022/02/08 07:06:20;;;;;;;13.23;3.50;;;10.50;89.00;;;;;;6072892;23;94828;-71
2022/02/08 07:08:47;;;;;;;11.70;3.92;;;10.50;88.80;;;;;;6098140;23;92594;-71
2022/02/08 07:11:16;;;;;;;10.77;3.28;;;10.50;88.80;;;;;;6098109;23;95653;-71
2022/02/08 07:13:45;;;;;;;15.73;3.80;;;10.50;88.70;;;;;;6124219;23;93816;-71
2022/02/08 07:16:16;;;;;;;10.48;3.22;;;10.50;88.60;;;;;;6074945;23;92847;-70
2022/02/08 07:18:43;;;;;;;11.90;3.40;;;10.60;88.30;;;;;;6097861;23;92481;-71
2022/02/08 07:21:11;;;;;;;12.40;3.58;;;10.60;88.30;;;;;;6124615;23;93193;-70
2022/02/08 07:23:38;;;;;;;12.98;3.35;;;10.50;88.40;;;;;;6124586;23;92884;-71
2022/02/08 07:26:07;;;;;;;12.60;4.57;;;10.50;88.20;;;;;;6099088;23;92518;-71
2022/02/08 07:28:39;;;;;;;12.65;3.95;;;10.60;88.40;;;;;;6097847;23;92522;-71
2022/02/08 07:31:14;;;;;;;;;;;10.60;88.40;;;;;;6123570;23;95633;-70
2022/02/08 07:33:49;;;;;;;14.40;3.50;;;10.50;87.90;;;;;;6125601;23;94916;-70
2022/02/08 07:38:43;;;;;;;11.48;3.25;;;10.60;88.00;;;;;;6124179;23;92411;-70
2022/02/08 07:43:38;;;;;;;18.27;3.42;;;10.60;87.80;;;;;;6097648;23;95219;-71
2022/02/08 07:46:10;;;;;;;13.13;3.05;;;10.70;87.70;;;;;;6122948;23;92680;-70
2022/02/08 07:48:37;;;;;;;11.57;3.17;;;10.70;87.50;;;;;;6097990;23;91784;-71
2022/02/08 07:51:04;;;;;;;17.05;3.50;;;10.80;87.30;;;;;;6050472;23;95677;-70
2022/02/08 07:53:31;;;;;;;11.75;3.05;;;10.80;86.90;;;;;;6099432;23;95556;-70
2022/02/08 07:55:58;;;;;;;15.77;3.47;;;10.80;87.00;;;;;;6124569;23;94772;-70
2022/02/08 07:58:25;;;;;;;16.27;3.22;;;10.80;87.00;;;;;;6075053;23;92465;-71
2022/02/08 08:00:52;;;;;;;16.00;4.20;;;10.80;86.80;;;;;;6125491;23;93179;-71
2022/02/08 08:03:20;;;;;;;13.90;2.85;;;10.80;86.60;;;;;;6074592;23;95352;-71
2022/02/08 08:05:48;;;;;;;12.90;2.83;;;10.90;86.50;;;;;;6099757;23;92800;-71
2022/02/08 08:08:15;;;;;;;12.48;2.63;;;10.90;86.30;;;;;;6099911;23;92482;-71
2022/02/08 08:10:46;;;;;;;10.27;3.05;;;10.90;86.10;;;;;;6075084;23;93204;-70
2022/02/08 08:13:17;;;;;;;17.90;3.40;;;10.90;86.10;;;;;;6126277;23;92866;-71
2022/02/08 08:15:58;;;;;;;13.80;3.33;;;11.00;86.00;;;;;;6075873;23;92384;-71
2022/02/08 08:21:00;;;;;;;14.52;2.85;;;11.00;86.30;;;;;;6123821;23;95500;-71
2022/02/08 08:23:27;;;;;;;8.88;2.58;;;11.00;86.00;;;;;;6099204;23;95391;-70
2022/02/08 08:25:54;;;;;;;13.55;2.75;;;11.10;85.90;;;;;;6125349;23;92368;-70
2022/02/08 08:28:22;;;;;;;14.80;2.60;;;11.10;85.50;;;;;;6126001;23;92733;-71
2022/02/08 08:30:49;;;;;;;13.65;2.42;;;11.20;85.50;;;;;;6125360;23;93118;-71
2022/02/08 08:33:16;;;;;;;11.90;3.35;;;11.20;85.30;;;;;;6099240;23;95438;-71
2022/02/08 08:36:02;;;;;;;11.85;2.85;;;11.30;85.00;;;;;;6103769;23;92341;-71
2022/02/08 08:38:32;;;;;;;12.57;2.80;;;11.40;84.80;;;;;;6126225;23;91697;-71
2022/02/08 08:41:08;;;;;;;14.32;2.40;;;11.40;84.40;;;;;;6074295;23;95960;-71
2022/02/08 08:51:41;;;;;;;13.80;3.17;;;11.50;83.70;;;;;;6155624;22;93214;-71
2022/02/08 08:54:08;;;;;;;10.20;2.80;;;11.60;83.70;;;;;;6106160;22;95511;-71
2022/02/08 08:56:40;;;;;;;13.93;3.22;;;11.50;83.50;;;;;;6129757;22;92425;-71
2022/02/08 08:59:09;;;;;;;15.90;2.67;;;11.60;83.60;;;;;;6104197;22;92413;-70
2022/02/08 09:01:36;;;;;;;13.05;2.88;;;11.60;83.30;;;;;;6128539;22;95610;-71
2022/02/08 09:04:05;;;;;;;13.50;3.65;;;11.60;83.50;;;;;;6128898;22;106286;-71
2022/02/08 09:06:34;;;;;;;14.30;3.22;;;11.70;83.40;;;;;;6129766;22;92380;-71
2022/02/08 09:09:10;;;;;;;15.93;2.97;;;11.70;83.10;;;;;;6128737;22;92387;-70
2022/02/08 09:14:14;;;;;;;9.57;2.08;;;11.70;83.20;;;;;;6155417;22;95393;-71
2022/02/08 09:17:15;;;;;;;11.27;1.85;;;11.60;83.00;;;;;;6155863;22;92398;-71
2022/02/08 09:27:47;;;;;;;6.88;2.38;;;11.70;83.20;;;;;;6104015;22;100455;-70
2022/02/08 09:30:16;;;;;;;16.10;3.10;;;11.80;82.90;;;;;;6135166;22;91703;-71
2022/02/08 09:32:47;;;;;;;;;;;11.80;82.70;;;;;;6156165;22;93354;-71
2022/02/08 09:35:16;;;;;;;13.00;2.55;;;11.80;82.30;;;;;;6156890;22;92502;-71
2022/02/08 09:37:45;;;;;;;9.25;2.60;;;11.80;82.90;;;;;;6127734;22;95171;-71
2022/02/08 09:40:15;;;;;;;11.55;2.80;;;11.90;82.60;;;;;;6154990;22;94808;-70
2022/02/08 09:42:42;;;;;;;9.05;2.50;;;11.90;82.30;;;;;;6155674;22;93020;-71
2022/02/08 09:45:14;;;;;;;9.52;2.70;;;12.00;82.30;;;;;;6155035;22;93143;-70
2022/02/08 09:47:51;;;;;;;7.97;2.15;;;12.10;81.90;;;;;;6155803;22;92797;-70
2022/02/08 09:50:23;;;;;;;7.68;2.55;;;12.10;81.40;;;;;;6147773;22;92382;-71
2022/02/08 09:52:53;;;;;;;11.35;2.83;;;12.20;81.60;;;;;;6155593;22;93176;-70
2022/02/08 09:55:21;;;;;;;9.50;2.45;;;12.20;81.20;;;;;;6154189;22;96133;-71
2022/02/08 09:57:51;;;;;;;8.45;2.25;;;12.30;81.10;;;;;;6154159;22;92415;-71
2022/02/08 10:00:19;;;;;;;8.60;2.25;;;12.40;81.00;;;;;;6155623;22;92298;-70
2022/02/08 10:02:46;;;;;;;11.75;2.92;;;12.30;80.70;;;;;;6151987;22;98329;-71
2022/02/08 10:05:14;;;;;;;8.57;3.47;;;12.40;80.80;;;;;;6154740;22;95396;-71
2022/02/08 10:07:41;;;;;;;16.17;3.55;;;12.40;80.70;;;;;;6155527;22;92440;-71
2022/02/08 10:10:10;;;;;;;11.88;3.00;;;12.50;80.80;;;;;;6153582;22;103195;-71
2022/02/08 10:24:07;;;;;;;11.80;3.28;;;12.50;80.10;;;;;;6154744;22;93237;-71
2022/02/08 10:29:24;;;;;;;11.70;2.60;;;12.50;80.40;;;;;;6153909;22;95199;-71
2022/02/08 10:40:16;;;;;;;12.25;2.85;;;12.50;80.20;;;;;;6155216;22;92807;-71
2022/02/08 10:42:51;;;;;;;10.02;2.28;;;12.50;80.80;;;;;;6153915;22;92384;-71
2022/02/08 10:45:20;;;;;;;14.70;2.92;;;12.60;80.20;;;;;;6153108;22;95784;-71
2022/02/08 10:47:53;;;;;;;10.07;2.42;;;12.50;80.20;;;;;;6153729;22;95569;-71
2022/02/08 10:50:20;;;;;;;10.98;2.60;;;12.60;80.00;;;;;;6152971;22;92474;-71
2022/02/08 10:52:47;;;;;;;8.38;2.72;;;12.60;79.80;;;;;;6128456;22;92550;-71
2022/02/08 10:57:56;;;;;;;8.27;2.70;;;12.60;79.90;;;;;;6152725;22;98065;-71
2022/02/08 11:00:33;;;;;;;7.70;2.60;;;12.70;79.80;;;;;;6153425;22;92478;-71
2022/02/08 11:03:04;;;;;;;7.40;2.78;;;12.80;79.70;;;;;;6128773;22;92720;-71
2022/02/08 11:08:21;;;;;;;9.73;2.90;;;12.80;79.30;;;;;;6153074;22;95509;-70
2022/02/08 11:24:01;;;;;;;11.15;2.58;;;12.90;78.80;;;;;;6154863;22;92409;-71
2022/02/08 11:26:35;;;;;;;9.68;2.38;;;13.00;78.70;;;;;;6153995;22;94462;-71
2022/02/08 11:29:40;;;;;;;9.75;2.50;;;12.90;79.00;;;;;;6156225;22;92690;-71
2022/02/08 11:32:36;;;;;;;10.10;2.30;;;13.00;78.70;;;;;;6141275;22;92429;-71
2022/02/08 11:44:46;;;;;;;8.98;2.30;;;13.00;79.10;;;;;;6156293;22;92463;-70
2022/02/08 11:51:58;;;;;;;9.25;2.67;;;13.00;79.20;;;;;;6128656;22;104708;-71
2022/02/08 11:54:38;;;;;;;9.50;2.50;;;13.00;79.00;;;;;;6155902;22;92318;-71
2022/02/08 12:07:36;;;;;;;7.68;2.60;;;12.90;79.60;;;;;;6156178;22;91705;-70
2022/02/08 12:13:00;;;;;;;8.20;2.95;;;12.90;79.40;;;;;;6155652;22;92994;-71
2022/02/08 12:55:40;;;;;;;8.80;2.45;;;13.00;79.70;;;;;;6155528;22;93075;-70
2022/02/08 13:05:57;;;;;;;12.95;2.58;;;13.00;79.60;;;;;;6155198;22;92403;-71
2022/02/08 14:07:02;;;;;;;7.57;2.10;;;13.00;81.90;;;;;;6117532;22;95121;-75
2022/02/08 14:18:15;;;;;;;10.48;2.92;;;12.90;82.40;;;;;;6138897;22;92444;-71
2022/02/08 14:23:27;;;;;;;10.07;2.78;;;12.80;82.60;;;;;;6128366;22;95747;-74
2022/02/08 15:10:35;;;;;;;8.57;2.80;;;12.40;84.40;;;;;;6156479;22;92968;-75
2022/02/08 15:13:03;;;;;;;11.30;2.33;;;12.40;84.40;;;;;;6129890;22;92872;-75
2022/02/08 15:18:14;;;;;;;7.93;2.42;;;12.40;84.40;;;;;;6129441;22;95757;-75
2022/02/08 15:20:41;;;;;;;14.52;2.75;;;12.50;84.40;;;;;;6130206;22;92840;-75
2022/02/08 15:23:28;;;;;;;7.35;2.60;;;12.40;84.40;;;;;;6109545;22;92391;-75
2022/02/08 15:25:57;;;;;;;9.00;2.30;;;12.40;84.30;;;;;;6129335;22;92494;-75
2022/02/08 15:28:27;;;;;;;13.35;3.00;;;12.40;84.50;;;;;;6154544;22;95742;-75
2022/02/08 15:30:55;;;;;;;7.38;2.45;;;12.40;84.20;;;;;;6104596;22;98271;-75
2022/02/08 15:33:23;;;;;;;12.13;3.00;;;12.30;84.10;;;;;;6130218;22;92374;-75
2022/02/08 15:35:51;;;;;;;12.60;2.85;;;12.30;83.90;;;;;;6129270;22;92485;-75
2022/02/08 15:38:18;;;;;;;16.23;3.30;;;12.30;84.10;;;;;;6156356;22;93066;-75
2022/02/08 15:40:45;;;;;;;10.45;3.00;;;12.30;84.00;;;;;;6128932;22;95967;-75
2022/02/08 15:43:14;;;;;;;12.55;2.63;;;12.20;84.00;;;;;;6129519;22;92475;-75
2022/02/08 15:45:53;;;;;;;8.82;2.20;;;12.20;83.40;;;;;;6105490;22;92062;-75
2022/02/08 15:48:22;;;;;;;10.15;2.30;;;12.20;83.40;;;;;;6132126;22;93288;-75
2022/02/08 15:51:05;;;;;;;11.90;2.55;;;12.20;83.30;;;;;;6123776;22;95387;-75
2022/02/08 16:08:52;;;;;;;12.27;4.65;;;12.10;82.90;;;;;;6155911;22;93111;-75
2022/02/08 16:19:20;;;;;;;9.48;3.08;;;12.00;82.50;;;;;;6152622;22;95602;-70
2022/02/08 16:59:21;;;;;;;4.80;1.83;;;11.90;82.50;;;;;;6156340;22;92349;-75
2022/02/08 17:01:49;;;;;;;10.27;2.17;;;11.90;82.30;;;;;;6156324;22;93163;-75
2022/02/08 17:04:16;;;;;;;10.98;2.80;;;11.90;82.30;;;;;;6155867;22;106184;-75
2022/02/08 17:06:43;;;;;;;11.82;3.03;;;11.90;82.40;;;;;;6154310;22;92437;-75
2022/02/08 17:09:18;;;;;;;9.35;2.50;;;11.90;82.50;;;;;;6156259;22;92372;-75
2022/02/08 17:11:56;;;;;;;11.65;2.50;;;11.90;82.50;;;;;;6154484;22;95554;-75
2022/02/08 17:14:49;;;;;;;13.02;2.88;;;12.00;82.30;;;;;;6154416;22;98199;-75
2022/02/08 17:46:50;;;;;;;17.38;4.28;;;11.80;83.70;;;;;;6153782;22;92922;-71
2022/02/08 17:49:17;;;;;;;13.60;3.35;;;11.70;84.50;;;;;;6154851;22;92313;-71
2022/02/08 17:51:43;;;;;;;13.07;4.03;;;11.70;84.80;;;;;;6155509;22;92368;-70
2022/02/08 17:54:12;;;;;;;11.15;4.13;;;11.70;85.20;;;;;;6154490;22;111176;-75
2022/02/08 17:56:40;;;;;;;17.15;4.80;;;11.70;85.70;;;;;;6129004;22;93965;-75
2022/02/08 17:59:08;;;;;;;11.40;3.20;;;11.70;86.30;;;;;;6129631;22;93038;-75
2022/02/08 18:01:35;;;;;;;13.85;4.28;;;11.70;86.70;;;;;;6128744;22;92487;-71
2022/02/08 18:04:02;;;;;;;12.50;3.90;;;11.60;87.10;;;;;;6153760;22;95540;-75
2022/02/08 18:06:29;;;;;;;13.55;3.80;;;11.60;87.70;;;;;;6128895;22;95425;-75
2022/02/08 18:08:56;;;;;;;17.25;4.00;;;11.60;88.00;;;;;;6155800;22;92413;-71
2022/02/08 18:11:28;;;;;;;12.90;3.17;;;11.50;88.00;;;;;;6155457;22;92476;-75
2022/02/08 18:13:55;;;;;;;13.43;3.50;;;11.50;88.30;;;;;;6130959;22;93249;-75
2022/02/08 18:16:24;;;;;;;11.38;3.83;;;11.40;88.20;;;;;;6128009;22;95725;-70
2022/02/08 18:18:51;;;;;;;8.73;3.05;;;11.40;88.50;;;;;;6127800;22;103190;-70
2022/02/08 18:21:27;;;;;;;8.65;4.45;;;11.40;88.70;;;;;;6155400;22;91684;-71
2022/02/08 19:24:07;;;;;;;8.27;2.95;;;11.20;89.50;;;;;;6072206;23;94909;-71
2022/02/08 19:26:34;;;;;;;14.02;5.00;;;11.20;90.00;;;;;;6073999;23;92565;-71
2022/02/08 19:29:01;;;;;;;10.80;4.53;;;11.10;90.00;;;;;;6124624;23;94611;-71
2022/02/08 19:31:28;;;;;;;12.90;4.60;;;11.10;90.10;;;;;;6097664;23;95639;-71
2022/02/08 19:33:56;;;;;;;10.93;4.68;;;11.10;90.30;;;;;;6049075;23;105602;-70
2022/02/08 19:36:23;;;;;;;14.18;5.35;;;11.10;90.40;;;;;;6124345;23;92430;-71
2022/02/08 19:38:50;;;;;;;15.40;5.40;;;11.10;90.60;;;;;;6124020;23;93263;-70
2022/02/08 19:41:21;;;;;;;10.13;5.28;;;11.10;90.50;;;;;;6124519;23;92894;-70
2022/02/08 19:43:49;;;;;;;10.93;5.07;;;11.10;90.40;;;;;;6098475;23;92973;-70
2022/02/08 19:46:17;;;;;;;12.90;6.05;;;11.10;90.40;;;;;;6124947;23;92409;-71
2022/02/08 19:48:44;;;;;;;12.70;6.60;;;11.10;90.30;;;;;;6098100;23;95589;-71
2022/02/08 19:51:11;;;;;;;12.68;6.43;;;11.10;90.60;;;;;;6147894;22;94969;-70
2022/02/08 19:53:39;;;;;;;13.25;6.57;;;11.10;90.50;;;;;;6155561;22;92331;-71
2022/02/08 19:58:34;;;;;;;16.92;6.38;;;11.10;90.40;;;;;;6128489;22;94791;-70
2022/02/08 20:01:07;;;;;;;9.60;6.93;;;11.10;90.50;;;;;;6128428;22;103492;-70
2022/02/08 20:03:39;;;;;;;11.32;6.97;;;11.10;90.50;;;;;;6155795;22;92424;-71
2022/02/08 20:06:08;;;;;;;13.35;7.45;;;11.10;90.50;;;;;;6156484;22;91612;-70
2022/02/08 20:08:36;;;;;;;13.93;7.32;;;11.10;90.50;;;;;;6128722;22;93519;-71
2022/02/08 20:11:03;;;;;;;11.65;8.07;;;11.10;90.90;;;;;;6129279;22;92964;-70
2022/02/08 20:13:30;;;;;;;13.13;8.65;;;11.10;90.60;;;;;;6154217;22;95261;-71
2022/02/08 20:16:00;;;;;;;13.57;8.55;;;11.10;90.70;;;;;;6155848;22;92715;-70
2022/02/08 20:18:28;;;;;;;12.15;9.43;;;11.10;90.80;;;;;;6155258;22;93262;-71
2022/02/08 20:20:57;;;;;;;14.98;8.93;;;11.00;91.20;;;;;;6128909;22;92872;-70
2022/02/08 20:23:24;;;;;;;17.13;10.40;;;11.00;91.10;;;;;;6128711;22;92410;-70
2022/02/08 20:25:54;;;;;;;15.52;9.75;;;11.00;91.50;;;;;;6155359;22;92418;-71
2022/02/08 20:28:34;;;;;;;19.70;10.77;;;10.90;91.20;;;;;;6155308;22;93162;-71
2022/02/08 20:31:02;;;;;;;12.73;9.80;;;10.90;91.40;;;;;;6155333;22;93057;-71
2022/02/08 20:33:29;;;;;;;15.10;10.10;;;10.80;91.60;;;;;;6128733;22;92486;-71
2022/02/08 20:35:56;;;;;;;15.48;9.52;;;10.80;91.60;;;;;;6154664;22;98728;-71
2022/02/08 20:38:25;;;;;;;15.68;9.75;;;10.80;91.60;;;;;;6153925;22;95511;-71
2022/02/08 20:40:54;;;;;;;13.18;9.75;;;10.80;91.60;;;;;;6103993;22;98023;-71
2022/02/08 20:43:21;;;;;;;10.85;9.55;;;10.80;91.60;;;;;;6104419;22;92445;-71
2022/02/08 20:45:49;;;;;;;14.48;10.13;;;10.80;91.60;;;;;;6129477;22;92413;-71
2022/02/08 20:48:18;;;;;;;17.83;10.80;;;10.80;91.60;;;;;;6155483;22;93188;-75
2022/02/08 20:50:46;;;;;;;15.98;10.60;;;10.80;91.70;;;;;;6154981;22;93011;-75
2022/02/08 20:53:22;;;;;;;17.67;10.80;;;10.80;91.80;;;;;;6104098;22;92549;-75
2022/02/08 20:55:58;;;;;;;16.27;10.10;;;10.80;91.80;;;;;;6129267;22;91655;-70
2022/02/08 20:58:48;;;;;;;17.80;11.50;;;10.80;91.90;;;;;;6127321;22;95638;-71
2022/02/08 21:01:12;;;;;;;16.02;10.30;;;10.80;92.00;;;;;;6127686;22;95482;-71
2022/02/08 21:03:52;;;;;;;14.13;11.80;;;10.80;92.00;;;;;;6152514;22;95045;-71
2022/02/08 21:06:21;;;;;;;15.27;10.63;;;10.80;91.90;;;;;;6154112;22;92408;-71
2022/02/08 21:08:49;;;;;;;19.42;11.68;;;10.80;91.90;;;;;;6154249;22;92995;-71
2022/02/08 21:11:18;;;;;;;16.70;12.05;;;10.80;91.80;;;;;;6127963;22;95790;-71
2022/02/08 21:16:27;;;;;;;15.00;10.98;;;10.80;91.80;;;;;;6155134;22;92288;-71
2022/02/08 21:18:56;;;;;;;19.27;11.35;;;10.80;91.70;;;;;;6128189;22;94113;-71
2022/02/08 21:21:25;;;;;;;17.90;12.10;;;10.80;91.80;;;;;;6103670;22;95528;-70
2022/02/08 21:23:53;;;;;;;13.52;12.13;;;10.80;91.80;;;;;;6128871;22;102648;-75
2022/02/08 21:26:27;;;;;;;15.82;11.45;;;10.80;91.60;;;;;;6155830;22;92414;-75